»·PEaware :: N261MG KEGE-KSLC

N261MG :: KEGE-KSLC

FLIGHT INFORMATION

Flight Status: Arrived
Operator: Privately registered:
United States
More flights under this callsign
Pilot: Marty O. (15602)
Aircraft: ECLIPSE 500
(EA50)
More flights by this aircraft type
Origin: KEGE Eagle Co Regl
United States
Destination: KSLC Salt Lake City Intl
United States
More flights between these airports :: More routes between these airports
Route: +BEVVR1 SPRKT EKR LEEHY5
File this flight plan on PilotEdge
Remarks:
Altitude:
(Current/Filed)
35,000ft
Speed:
(Current/Filed)
360kts
Departed: 08-Nov-20 08:19 PM
Arrived: 08-Nov-20 09:38 PM
Distance/Time
Traveled:
241nm/1:18
Distance/Time
To Go:
Arrived

Flight Plot

Page will automatically refresh every two minutes.

Flight plan parsing failed; only flown route is shown


Map Options




Map Legend


Flown Route
Filed Route
Departure Airport
Arrival Airport
Navaid (VOR, NDB)
Fix

Horizontal Profiles

Position Reports

Time Latitude Longitude Heading Altitude Ground
Speed
08-Nov-20 19:59 39.641107 -106.905946 82 6548ft 0kts
08-Nov-20 20:00 39.641107 -106.905946 82 6548ft 0kts
08-Nov-20 20:01 39.641107 -106.905946 82 6548ft 0kts
08-Nov-20 20:02 39.641107 -106.905946 82 6548ft 0kts
08-Nov-20 20:03 39.641107 -106.905946 82 6548ft 0kts
08-Nov-20 20:04 39.641107 -106.905946 82 6548ft 0kts
08-Nov-20 20:05 39.641107 -106.905946 82 6548ft 0kts
08-Nov-20 20:06 39.641107 -106.905946 82 6548ft 0kts
08-Nov-20 20:07 39.641107 -106.905946 82 6548ft 0kts
08-Nov-20 20:08 39.641107 -106.905946 82 6548ft 0kts
08-Nov-20 20:09 39.641107 -106.905946 82 6548ft 0kts
08-Nov-20 20:10 39.641414 -106.905463 31 6548ft 1kts
08-Nov-20 20:11 39.642429 -106.903928 53 6548ft 1kts
08-Nov-20 20:12 39.643050 -106.902956 73 6548ft 0kts
08-Nov-20 20:13 39.643315 -106.901073 81 6548ft 2kts
08-Nov-20 20:14 39.643444 -106.900348 53 6548ft 0kts
08-Nov-20 20:15 39.643473 -106.900297 53 6548ft 0kts
08-Nov-20 20:16 39.643974 -106.900201 351 6548ft 0kts
08-Nov-20 20:17 39.644087 -106.900225 350 6548ft 0kts
08-Nov-20 20:18 39.642597 -106.918413 270 6657ft 134kts
08-Nov-20 20:19 39.609022 -106.969297 208 8413ft 215kts
08-Nov-20 20:20 39.581379 -107.021768 266 12017ft 195kts
08-Nov-20 20:21 39.605808 -107.094556 313 13098ft 293kts
08-Nov-20 20:22 39.691952 -107.098588 12 13092ft 343kts
08-Nov-20 20:24 39.767627 -107.154736 299 13092ft 328kts
08-Nov-20 20:25 39.818488 -107.253222 299 14223ft 307kts
08-Nov-20 20:26 39.862241 -107.337372 296 17699ft 264kts
08-Nov-20 20:27 39.899287 -107.408688 292 20707ft 223kts
08-Nov-20 20:28 39.933640 -107.475398 291 22609ft 224kts
08-Nov-20 20:29 39.969135 -107.550745 277 22821ft 264kts
08-Nov-20 20:30 39.996202 -107.656359 280 22815ft 324kts
08-Nov-20 20:31 40.028884 -107.779558 281 22816ft 358kts
08-Nov-20 20:32 40.061774 -107.902519 279 25088ft 305kts
08-Nov-20 20:33 40.071414 -107.995516 260 27929ft 241kts
08-Nov-20 20:34 40.074744 -108.076484 259 30049ft 213kts
08-Nov-20 20:35 40.080703 -108.154175 258 31447ft 210kts
08-Nov-20 20:36 40.083768 -108.226589 256 32949ft 194kts
08-Nov-20 20:37 40.086519 -108.296573 256 33989ft 193kts
08-Nov-20 20:38 40.089247 -108.367532 256 34792ft 201kts
08-Nov-20 20:39 40.092197 -108.447622 259 34817ft 241kts
08-Nov-20 20:40 40.095744 -108.541253 260 34815ft 272kts
08-Nov-20 20:40 40.098928 -108.626711 261 34814ft 292kts
08-Nov-20 20:42 40.103590 -108.754986 261 34804ft 311kts
08-Nov-20 20:42 40.106948 -108.850299 261 34803ft 319kts
08-Nov-20 20:44 40.114193 -108.969325 259 36531ft 173kts
08-Nov-20 20:44 40.116174 -109.005572 268 36330ft 147kts
08-Nov-20 20:46 40.125294 -109.064288 276 34565ft 165kts
08-Nov-20 20:46 40.129506 -109.098163 247 34730ft 104kts
08-Nov-20 20:47 40.129237 -109.138118 250 34797ft 118kts
08-Nov-20 20:48 40.129551 -109.188300 256 34808ft 159kts
08-Nov-20 20:49 40.130752 -109.254596 259 34807ft 205kts
08-Nov-20 20:50 40.132641 -109.336756 261 34804ft 246kts
08-Nov-20 20:51 40.134888 -109.433382 263 34275ft 297kts
08-Nov-20 20:52 40.137648 -109.553633 264 32542ft 364kts
08-Nov-20 20:53 40.140691 -109.690507 264 30398ft 380kts
08-Nov-20 20:54 40.143596 -109.833614 265 28086ft 403kts
08-Nov-20 20:55 40.146397 -109.979080 265 25756ft 398kts
08-Nov-20 20:56 40.148951 -110.122084 266 23428ft 389kts
08-Nov-20 20:57 40.148017 -110.261590 266 21103ft 378kts
08-Nov-20 20:58 40.146874 -110.397632 266 20756ft 376kts
08-Nov-20 20:59 40.145537 -110.534044 266 20752ft 376kts
08-Nov-20 21:00 40.144159 -110.671241 265 20750ft 376kts
08-Nov-20 21:01 40.142547 -110.801255 265 20751ft 349kts
08-Nov-20 21:02 40.140831 -110.927476 265 20756ft 343kts
08-Nov-20 21:03 40.139058 -111.047191 265 20777ft 295kts
08-Nov-20 21:04 40.137409 -111.150105 266 20799ft 286kts
08-Nov-20 21:05 40.135724 -111.255047 266 19878ft 284kts
08-Nov-20 21:06 40.133957 -111.358222 267 18223ft 276kts
08-Nov-20 21:07 40.132078 -111.462032 267 16533ft 270kts
08-Nov-20 21:08 40.134909 -111.561413 294 14891ft 267kts
08-Nov-20 21:09 40.168363 -111.651177 293 13218ft 262kts
08-Nov-20 21:10 40.200849 -111.739056 293 11997ft 254kts
08-Nov-20 21:11 40.232667 -111.825441 294 11990ft 257kts
08-Nov-20 21:12 40.264500 -111.912168 293 11990ft 257kts
08-Nov-20 21:13 40.318356 -111.973559 328 11990ft 252kts
08-Nov-20 21:14 40.385252 -112.023933 328 11997ft 261kts
08-Nov-20 21:15 40.456082 -112.054767 353 11732ft 264kts
08-Nov-20 21:16 40.527502 -112.064086 352 11052ft 257kts
08-Nov-20 21:17 40.601156 -112.073863 352 11011ft 258kts
08-Nov-20 21:18 40.676205 -112.083124 353 11009ft 258kts
08-Nov-20 21:19 40.751501 -112.091897 353 11009ft 258kts
08-Nov-20 21:20 40.827777 -112.100939 353 11008ft 258kts
08-Nov-20 21:21 40.904044 -112.109996 353 11005ft 259kts
08-Nov-20 21:22 40.977623 -112.118731 353 11000ft 230kts
08-Nov-20 21:23 41.045324 -112.126876 353 11001ft 229kts
08-Nov-20 21:24 41.110313 -112.134689 355 10404ft 225kts
08-Nov-20 21:25 41.147572 -112.094648 91 9498ft 194kts
08-Nov-20 21:26 41.145063 -112.031547 91 8582ft 159kts
08-Nov-20 21:27 41.140443 -111.975573 104 7683ft 147kts
08-Nov-20 21:28 41.102168 -111.955740 184 6419ft 169kts
08-Nov-20 21:29 41.058707 -111.959364 183 6015ft 124kts
08-Nov-20 21:30 41.018102 -111.961008 182 5998ft 142kts
08-Nov-20 21:31 40.981618 -111.960430 179 6525ft 133kts
08-Nov-20 21:32 40.935825 -111.964966 176 6976ft 177kts
08-Nov-20 21:33 40.891631 -111.962488 180 6079ft 148kts
08-Nov-20 21:34 40.853231 -111.962116 180 5324ft 119kts
08-Nov-20 21:35 40.822949 -111.962079 180 4745ft 108kts
08-Nov-20 21:36 40.794358 -111.962010 180 4230ft 84kts
08-Nov-20 21:37 40.786177 -111.960829 126 4230ft 4kts
08-Nov-20 21:38 40.785759 -111.960134 131 4230ft 1kts
08-Nov-20 21:39 40.783301 -111.960032 180 4230ft 13kts
08-Nov-20 21:40 40.778004 -111.959657 161 4230ft 23kts
08-Nov-20 21:41 40.776522 -111.958945 167 4230ft 0kts

Navigation Log

Ident Type
Flight plan parsing failed, navigation log unavailable